createdAt,value
2022-11-15T00:00:05.318Z,29.90
2022-11-15T00:02:52.180Z,29.33
2022-11-15T00:05:39.002Z,29.93
2022-11-15T00:08:25.463Z,28.20
2022-11-15T00:11:14.352Z,28.90
2022-11-15T00:14:03.231Z,26.60
2022-11-15T00:16:49.710Z,26.77
2022-11-15T00:19:36.180Z,28.30
2022-11-15T00:22:22.801Z,25.90
2022-11-15T00:25:09.892Z,26.87
2022-11-15T00:27:59.465Z,28.13
2022-11-15T00:30:45.950Z,26.37
2022-11-15T00:33:33.412Z,25.57
2022-11-15T00:36:21.371Z,24.67
2022-11-15T00:39:08.389Z,25.77
2022-11-15T00:41:55.334Z,25.83
2022-11-15T00:44:43.059Z,25.10
2022-11-15T00:47:29.910Z,24.37
2022-11-15T00:50:16.504Z,24.93
2022-11-15T00:53:03.008Z,26.33
2022-11-15T00:55:49.306Z,25.63
2022-11-15T00:58:35.791Z,23.50
2022-11-15T01:01:23.596Z,26.33
2022-11-15T01:04:10.437Z,25.70
2022-11-15T01:06:56.864Z,25.07
2022-11-15T01:09:43.552Z,25.83
2022-11-15T01:12:29.864Z,25.93
2022-11-15T01:15:16.377Z,23.90
2022-11-15T01:18:04.352Z,24.10
2022-11-15T01:20:50.740Z,25.67
2022-11-15T01:23:37.291Z,24.63
2022-11-15T01:26:25.524Z,24.33
2022-11-15T01:29:11.986Z,23.30
2022-11-15T01:31:58.556Z,24.60
2022-11-15T01:34:46.684Z,25.13
2022-11-15T01:37:33.459Z,23.30
2022-11-15T01:40:19.813Z,24.20
2022-11-15T01:43:23.694Z,23.50
2022-11-15T01:46:24.400Z,21.90
2022-11-15T01:49:16.518Z,22.33
2022-11-15T01:52:08.014Z,25.00
2022-11-15T01:54:58.745Z,23.77
2022-11-15T01:57:49.355Z,23.83
2022-11-15T02:00:36.255Z,26.47
2022-11-15T02:03:27.332Z,23.70
2022-11-15T02:06:14.275Z,25.03
2022-11-15T02:09:03.370Z,24.20
2022-11-15T02:11:52.810Z,25.73
2022-11-15T02:14:42.051Z,25.50
2022-11-15T02:17:40.055Z,25.00
2022-11-15T02:20:45.019Z,26.80
2022-11-15T02:24:01.167Z,26.63
2022-11-15T02:27:21.099Z,24.57
2022-11-15T02:30:34.101Z,25.80
2022-11-15T02:33:33.942Z,24.73
2022-11-15T02:36:31.528Z,25.83
2022-11-15T02:39:27.543Z,25.27
2022-11-15T02:42:32.815Z,25.90
2022-11-15T02:45:25.396Z,24.60
2022-11-15T02:48:14.628Z,26.80
2022-11-15T02:51:01.404Z,27.83
2022-11-15T02:53:47.771Z,24.70
2022-11-15T02:56:34.673Z,25.67
2022-11-15T02:59:37.399Z,25.33
2022-11-15T03:02:38.791Z,26.77
2022-11-15T03:05:34.278Z,27.00
2022-11-15T03:08:31.250Z,25.77
2022-11-15T03:11:20.076Z,26.73
2022-11-15T03:14:16.049Z,27.13
2022-11-15T03:17:10.487Z,26.10
2022-11-15T03:20:00.826Z,26.83
2022-11-15T03:22:50.281Z,26.73
2022-11-15T03:25:40.470Z,28.30
2022-11-15T03:28:34.582Z,29.10
2022-11-15T03:31:45.646Z,27.13
2022-11-15T03:34:41.623Z,28.20
2022-11-15T03:37:34.660Z,27.50
2022-11-15T03:40:27.490Z,27.07
2022-11-15T03:43:23.725Z,26.40
2022-11-15T03:46:16.218Z,27.17
2022-11-15T03:49:12.470Z,25.50
2022-11-15T03:52:00.005Z,27.00
2022-11-15T03:54:54.875Z,26.37
2022-11-15T03:57:42.837Z,26.93
2022-11-15T04:00:30.319Z,21.20
2022-11-15T04:03:17.170Z,25.40
2022-11-15T04:06:03.633Z,25.77
2022-11-15T04:08:50.107Z,27.30
2022-11-15T04:11:37.042Z,25.97
2022-11-15T04:14:24.896Z,27.10
2022-11-15T04:17:12.006Z,26.50
2022-11-15T04:20:16.230Z,28.43
2022-11-15T04:23:22.802Z,26.93
2022-11-15T04:26:12.189Z,27.90
2022-11-15T04:29:16.225Z,29.23
2022-11-15T04:32:04.644Z,29.13
2022-11-15T04:34:51.380Z,27.10
2022-11-15T04:37:38.015Z,27.27
2022-11-15T04:40:24.709Z,26.07
2022-11-15T04:43:11.352Z,25.43
2022-11-15T04:45:57.921Z,27.47
2022-11-15T04:48:45.761Z,25.47
2022-11-15T04:51:32.569Z,26.63
2022-11-15T04:54:18.987Z,25.07
2022-11-15T04:57:05.736Z,26.40
2022-11-15T04:59:52.495Z,27.27
2022-11-15T05:02:56.323Z,27.00
2022-11-15T05:05:44.564Z,27.60
2022-11-15T05:08:31.479Z,25.87
2022-11-15T05:11:18.219Z,26.00
2022-11-15T05:14:04.766Z,25.47
2022-11-15T05:16:51.364Z,24.83
2022-11-15T05:19:38.016Z,25.60
2022-11-15T05:22:26.076Z,25.47
2022-11-15T05:25:13.001Z,28.63
2022-11-15T05:27:59.670Z,26.53
2022-11-15T05:30:46.394Z,25.17
2022-11-15T05:33:33.758Z,27.53
2022-11-15T05:36:27.511Z,27.00
2022-11-15T05:39:15.511Z,25.80
2022-11-15T05:42:06.579Z,25.00
2022-11-15T05:44:53.382Z,24.30
2022-11-15T05:47:41.167Z,23.67
2022-11-15T05:50:28.227Z,24.03
2022-11-15T05:53:17.020Z,24.20
2022-11-15T05:56:06.646Z,24.50
2022-11-15T05:58:59.297Z,24.90
2022-11-15T06:01:46.869Z,24.50
2022-11-15T06:04:33.198Z,24.37
2022-11-15T06:07:19.861Z,22.47
2022-11-15T06:10:07.452Z,22.70
2022-11-15T06:13:00.464Z,24.57
2022-11-15T06:15:47.507Z,24.30
2022-11-15T06:18:35.516Z,25.00
2022-11-15T06:21:22.305Z,24.10
2022-11-15T06:24:09.669Z,23.47
2022-11-15T06:26:56.630Z,22.87
2022-11-15T06:29:44.680Z,22.67
2022-11-15T06:32:32.045Z,22.40
2022-11-15T06:35:19.324Z,24.17
2022-11-15T06:38:07.945Z,23.27
2022-11-15T06:40:54.569Z,23.87
2022-11-15T06:43:41.769Z,23.90
2022-11-15T06:46:30.064Z,23.67
2022-11-15T06:49:17.836Z,22.17
2022-11-15T06:52:04.494Z,22.30
2022-11-15T06:54:51.323Z,23.80
2022-11-15T06:57:38.387Z,23.20
2022-11-15T07:00:25.111Z,23.97
2022-11-15T07:03:13.015Z,26.50
2022-11-15T07:06:05.674Z,22.50
2022-11-15T07:08:53.797Z,24.80
2022-11-15T07:11:40.220Z,25.37
2022-11-15T07:14:26.642Z,22.63
2022-11-15T07:17:13.109Z,22.00
2022-11-15T07:20:00.996Z,21.50
2022-11-15T07:22:47.971Z,21.23
2022-11-15T07:25:35.466Z,22.00
2022-11-15T07:28:24.422Z,22.70
2022-11-15T07:31:11.337Z,23.80
2022-11-15T07:33:58.389Z,24.77
2022-11-15T07:36:46.215Z,25.50
2022-11-15T07:39:32.988Z,22.13
2022-11-15T07:42:36.756Z,23.03
2022-11-15T07:45:26.693Z,22.83
2022-11-15T07:48:13.427Z,30.97
2022-11-15T07:51:00.028Z,27.00
2022-11-15T07:53:47.869Z,23.50
2022-11-15T07:56:34.503Z,22.67
2022-11-15T07:59:21.429Z,21.90
2022-11-15T08:02:08.331Z,22.03
2022-11-15T08:04:55.215Z,23.40
2022-11-15T08:07:42.240Z,21.30
2022-11-15T08:10:30.588Z,24.07
2022-11-15T08:13:17.401Z,24.33
2022-11-15T08:16:06.267Z,22.83
2022-11-15T08:18:53.237Z,23.20
2022-11-15T08:21:39.575Z,22.67
2022-11-15T08:24:26.096Z,22.67
2022-11-15T08:27:16.625Z,22.23
2022-11-15T08:30:03.597Z,22.47
2022-11-15T08:32:50.337Z,26.90
2022-11-15T08:35:36.852Z,25.60
2022-11-15T08:38:23.328Z,24.47
2022-11-15T08:41:15.433Z,23.23
2022-11-15T08:44:03.703Z,22.33
2022-11-15T08:46:50.474Z,23.23
2022-11-15T08:49:36.931Z,26.23
2022-11-15T08:52:23.720Z,24.33
2022-11-15T08:55:10.759Z,23.60
2022-11-15T08:57:59.532Z,23.70
2022-11-15T09:00:47.324Z,23.10
2022-11-15T09:03:34.052Z,20.40
2022-11-15T09:06:20.867Z,24.23
2022-11-15T09:09:07.301Z,23.20
2022-11-15T09:11:58.073Z,23.47
2022-11-15T09:14:47.802Z,23.27
2022-11-15T09:17:35.840Z,32.10
2022-11-15T09:20:22.678Z,32.70
2022-11-15T09:23:09.062Z,31.33
2022-11-15T09:26:01.413Z,24.27
2022-11-15T09:28:47.979Z,22.77
2022-11-15T09:31:34.545Z,23.90
2022-11-15T09:34:22.769Z,23.70
2022-11-15T09:37:09.234Z,21.50
2022-11-15T09:39:55.766Z,25.20
2022-11-15T09:42:59.061Z,25.20
2022-11-15T09:45:58.902Z,19.87
2022-11-15T09:48:58.152Z,20.93
2022-11-15T09:51:47.696Z,42.93
2022-11-15T09:57:17.144Z,17.43
2022-11-15T10:03:12.823Z,16.07
2022-11-15T10:05:43.871Z,16.40
2022-11-15T10:08:29.413Z,14.87
2022-11-15T10:11:22.795Z,13.70
2022-11-15T10:13:50.520Z,13.60
2022-11-15T10:16:38.948Z,15.10
2022-11-15T10:19:15.381Z,15.03
2022-11-15T10:21:53.426Z,13.17
2022-11-15T10:24:29.090Z,13.30
2022-11-15T10:26:58.244Z,13.90
2022-11-15T10:29:27.548Z,16.20
2022-11-15T10:31:55.952Z,14.77
2022-11-15T10:34:25.946Z,13.60
2022-11-15T10:36:58.141Z,13.33
2022-11-15T10:39:28.298Z,12.50
2022-11-15T10:41:56.633Z,12.83
2022-11-15T10:44:28.269Z,12.60
2022-11-15T10:47:39.580Z,11.10
2022-11-15T10:50:27.017Z,11.90
2022-11-15T10:52:55.821Z,12.17
2022-11-15T10:55:31.860Z,12.40
2022-11-15T10:58:08.479Z,10.63
2022-11-15T11:00:39.528Z,10.43
2022-11-15T11:03:22.086Z,10.47
2022-11-15T11:05:50.210Z,11.63
2022-11-15T11:08:26.063Z,11.23
2022-11-15T11:11:03.170Z,9.93
2022-11-15T11:13:33.753Z,9.47
2022-11-15T11:16:22.050Z,11.50
2022-11-15T11:19:04.085Z,10.40
2022-11-15T11:21:44.576Z,9.00
2022-11-15T11:24:20.830Z,9.40
2022-11-15T11:27:01.758Z,9.60
2022-11-15T11:29:41.521Z,8.67
2022-11-15T11:32:34.771Z,8.93
2022-11-15T11:35:11.473Z,8.70
2022-11-15T11:37:47.875Z,10.10
2022-11-15T11:40:31.247Z,7.20
2022-11-15T11:43:11.161Z,7.50
2022-11-15T11:45:59.621Z,7.33
2022-11-15T11:48:42.069Z,6.90
2022-11-15T11:51:18.538Z,6.93
2022-11-15T11:53:55.024Z,6.40
2022-11-15T11:56:30.602Z,7.13
2022-11-15T11:59:14.444Z,6.50
2022-11-15T12:01:45.270Z,6.67
2022-11-15T12:04:21.211Z,6.23
2022-11-15T12:06:54.280Z,10.13
2022-11-15T12:09:28.594Z,8.60
2022-11-15T12:12:03.560Z,5.17
2022-11-15T12:14:39.138Z,5.80
2022-11-15T12:17:07.178Z,5.50
2022-11-15T12:19:35.889Z,5.17
2022-11-15T12:22:11.417Z,5.00
2022-11-15T12:24:44.040Z,4.70
2022-11-15T12:27:26.289Z,5.50
2022-11-15T12:30:00.400Z,4.90
2022-11-15T12:32:31.440Z,5.03
2022-11-15T12:35:00.499Z,4.40
2022-11-15T12:37:56.054Z,4.20
2022-11-15T12:40:33.131Z,6.20
2022-11-15T12:43:13.011Z,4.47
2022-11-15T12:45:44.534Z,4.33
2022-11-15T12:48:48.255Z,5.10
2022-11-15T12:51:16.321Z,4.53
2022-11-15T12:53:44.370Z,4.13
2022-11-15T12:56:24.850Z,4.87
2022-11-15T12:58:56.601Z,4.00
2022-11-15T13:02:03.258Z,3.63
2022-11-15T13:04:32.982Z,3.30
2022-11-15T13:07:04.139Z,3.17
2022-11-15T13:09:59.978Z,4.30
2022-11-15T13:12:57.798Z,2.83
2022-11-15T13:15:54.818Z,3.07
2022-11-15T13:18:39.975Z,2.80
2022-11-15T13:21:40.580Z,2.97
2022-11-15T13:24:18.385Z,2.70
2022-11-15T13:26:47.414Z,2.73
2022-11-15T13:29:19.083Z,2.00
2022-11-15T13:31:47.775Z,2.77
2022-11-15T13:34:51.650Z,2.80
2022-11-15T13:37:33.601Z,3.83
2022-11-15T13:40:24.522Z,3.63
2022-11-15T13:42:53.028Z,2.80
2022-11-15T13:45:21.630Z,2.37
2022-11-15T13:48:00.153Z,2.30
2022-11-15T13:50:34.162Z,2.20
2022-11-15T13:53:04.818Z,2.40
2022-11-15T13:55:34.674Z,2.20
2022-11-15T13:58:07.047Z,4.70
2022-11-15T14:00:38.594Z,2.43
2022-11-15T14:03:18.131Z,2.50
2022-11-15T14:06:03.383Z,2.60
2022-11-15T14:08:31.948Z,2.23
2022-11-15T14:11:14.206Z,2.53
2022-11-15T14:13:42.291Z,2.57
2022-11-15T14:16:21.863Z,2.20
2022-11-15T14:18:51.878Z,2.03
2022-11-15T14:21:22.631Z,2.00
2022-11-15T14:23:51.621Z,2.00
2022-11-15T14:26:31.362Z,2.37
2022-11-15T14:28:59.565Z,2.40
2022-11-15T14:31:27.672Z,2.70
2022-11-15T14:33:55.748Z,2.70
2022-11-15T14:36:25.187Z,3.03
2022-11-15T14:38:55.187Z,8.30
2022-11-15T14:41:25.180Z,3.03
2022-11-15T14:43:54.182Z,2.70
2022-11-15T14:46:22.219Z,2.30
2022-11-15T14:48:50.290Z,2.70
2022-11-15T14:51:19.842Z,2.50
2022-11-15T14:53:49.557Z,2.67
2022-11-15T14:56:18.193Z,2.50
2022-11-15T14:58:47.070Z,2.50
2022-11-15T15:01:21.309Z,2.73
2022-11-15T15:03:49.572Z,2.70
2022-11-15T15:06:18.459Z,2.63
2022-11-15T15:08:49.005Z,3.07
2022-11-15T15:11:22.718Z,3.00
2022-11-15T15:13:50.912Z,3.00
2022-11-15T15:16:18.962Z,2.80
2022-11-15T15:18:47.240Z,2.90
2022-11-15T15:21:22.657Z,3.43
2022-11-15T15:23:51.115Z,2.97
2022-11-15T15:26:20.562Z,3.73
2022-11-15T15:28:49.596Z,3.20
2022-11-15T15:31:17.734Z,3.67
2022-11-15T15:33:45.882Z,3.53
2022-11-15T15:36:15.306Z,3.80
2022-11-15T15:38:43.349Z,3.77
2022-11-15T15:41:13.270Z,3.87
2022-11-15T15:43:43.794Z,4.63
2022-11-15T15:46:13.632Z,5.20
2022-11-15T15:48:41.843Z,5.83
2022-11-15T15:51:18.527Z,5.73
2022-11-15T15:53:47.973Z,7.13
2022-11-15T15:56:16.166Z,7.00
2022-11-15T15:58:45.603Z,5.63
2022-11-15T16:01:13.682Z,6.07
2022-11-15T16:03:41.808Z,8.40
2022-11-15T16:06:39.027Z,8.93
2022-11-15T16:09:15.348Z,5.70
2022-11-15T16:11:45.284Z,5.90
2022-11-15T16:14:15.164Z,6.30
2022-11-15T16:16:43.225Z,5.90
2022-11-15T16:19:12.567Z,6.50
2022-11-15T16:21:40.623Z,5.87
2022-11-15T16:24:08.747Z,5.13
2022-11-15T16:26:38.092Z,6.00
2022-11-15T16:29:07.896Z,5.30
2022-11-15T16:31:37.457Z,5.90
2022-11-15T16:34:05.513Z,6.30
2022-11-15T16:36:35.953Z,6.33
2022-11-15T16:39:05.243Z,7.17
2022-11-15T16:41:34.114Z,7.33
2022-11-15T16:44:02.187Z,6.93
2022-11-15T16:46:30.379Z,6.70
2022-11-15T16:48:59.909Z,6.90
2022-11-15T16:51:27.984Z,5.90
2022-11-15T16:53:55.983Z,6.70
2022-11-15T16:56:26.895Z,8.87
2022-11-15T16:58:55.729Z,9.57
2022-11-15T17:01:26.584Z,7.33
2022-11-15T17:03:55.495Z,6.73
2022-11-15T17:06:26.383Z,7.00
2022-11-15T17:08:54.541Z,7.20
2022-11-15T17:11:24.012Z,7.50
2022-11-15T17:13:53.160Z,7.30
2022-11-15T17:16:21.255Z,11.70
2022-11-15T17:18:52.559Z,9.20
2022-11-15T17:21:22.384Z,7.13
2022-11-15T17:23:51.927Z,7.63
2022-11-15T17:26:40.374Z,7.43
2022-11-15T17:29:08.874Z,7.90
2022-11-15T17:31:37.930Z,7.70
2022-11-15T17:34:07.237Z,7.13
2022-11-15T17:36:35.821Z,7.00
2022-11-15T17:39:05.868Z,8.03
2022-11-15T17:41:33.934Z,7.20
2022-11-15T17:44:03.489Z,8.07
2022-11-15T17:46:32.212Z,6.97
2022-11-15T17:49:00.335Z,7.10
2022-11-15T17:51:28.362Z,7.20
2022-11-15T17:53:57.244Z,7.20
2022-11-15T17:56:28.698Z,7.30
2022-11-15T17:58:58.296Z,7.30
2022-11-15T18:01:28.420Z,7.07
2022-11-15T18:04:00.167Z,7.60
2022-11-15T18:06:30.403Z,7.60
2022-11-15T18:08:58.824Z,7.70
2022-11-15T18:11:29.968Z,7.10
2022-11-15T18:13:59.976Z,7.43
2022-11-15T18:16:30.959Z,8.10
2022-11-15T18:19:00.076Z,7.07
2022-11-15T18:21:30.253Z,6.83
2022-11-15T18:24:01.388Z,7.70
2022-11-15T18:26:31.813Z,6.93
2022-11-15T18:29:06.307Z,7.13
2022-11-15T18:31:34.392Z,7.10
2022-11-15T18:34:02.564Z,6.60
2022-11-15T18:36:32.185Z,6.70
2022-11-15T18:39:02.451Z,6.80
2022-11-15T18:41:32.884Z,6.40
2022-11-15T18:44:02.991Z,7.00
2022-11-15T18:46:34.597Z,6.80
2022-11-15T18:49:04.086Z,6.47
2022-11-15T18:51:33.122Z,11.83
2022-11-15T18:54:02.616Z,10.50
2022-11-15T18:56:33.911Z,7.30
2022-11-15T18:59:03.157Z,7.30
2022-11-15T19:01:33.878Z,7.60
2022-11-15T19:04:06.580Z,8.67
2022-11-15T19:06:37.636Z,8.23
2022-11-15T19:09:05.717Z,7.50
2022-11-15T19:11:36.694Z,8.77
2022-11-15T19:14:06.258Z,9.17
2022-11-15T19:16:36.930Z,8.53
2022-11-15T19:19:07.219Z,6.90
2022-11-15T19:21:35.624Z,8.10
2022-11-15T19:24:04.059Z,8.23
2022-11-15T19:26:32.199Z,11.10
2022-11-15T19:29:02.868Z,12.57
2022-11-15T19:31:32.247Z,9.10
2022-11-15T19:34:01.675Z,9.30
2022-11-15T19:36:32.391Z,10.00
2022-11-15T19:39:05.003Z,8.57
2022-11-15T19:41:33.423Z,8.20
2022-11-15T19:44:03.043Z,7.80
2022-11-15T19:46:31.331Z,8.40
2022-11-15T19:48:59.405Z,9.07
2022-11-15T19:51:29.288Z,21.90
2022-11-15T19:53:58.409Z,23.77
2022-11-15T19:56:26.530Z,9.70
2022-11-15T19:58:56.170Z,8.50
2022-11-15T20:01:27.479Z,9.30
2022-11-15T20:03:57.808Z,8.67
2022-11-15T20:06:27.387Z,9.00
2022-11-15T20:08:55.691Z,8.30
2022-11-15T20:11:24.032Z,9.27
2022-11-15T20:13:52.249Z,8.30
2022-11-15T20:16:22.332Z,8.90
2022-11-15T20:18:53.038Z,9.10
2022-11-15T20:21:21.798Z,8.70
2022-11-15T20:23:51.586Z,8.00
2022-11-15T20:26:20.256Z,8.90
2022-11-15T20:28:48.986Z,10.00
2022-11-15T20:31:17.675Z,8.97
2022-11-15T20:33:48.387Z,10.90
2022-11-15T20:36:17.759Z,9.40
2022-11-15T20:38:46.387Z,10.67
2022-11-15T20:41:15.109Z,9.53
2022-11-15T20:43:43.793Z,9.47
2022-11-15T20:46:12.679Z,9.10
2022-11-15T20:48:41.023Z,9.87
2022-11-15T20:51:12.712Z,12.50
2022-11-15T20:53:42.506Z,11.77
2022-11-15T20:56:13.331Z,9.83
2022-11-15T20:58:41.604Z,8.53
2022-11-15T21:01:11.752Z,8.67
2022-11-15T21:03:39.849Z,9.40
2022-11-15T21:06:08.595Z,9.20
2022-11-15T21:08:50.601Z,9.20
2022-11-15T21:11:37.808Z,8.50
2022-11-15T21:14:09.293Z,8.70
2022-11-15T21:16:37.812Z,8.90
2022-11-15T21:19:07.007Z,9.67
2022-11-15T21:21:35.446Z,8.87
2022-11-15T21:24:04.160Z,9.30
2022-11-15T21:26:34.037Z,8.20
2022-11-15T21:29:02.409Z,8.97
2022-11-15T21:31:32.000Z,8.93
2022-11-15T21:34:02.884Z,8.90
2022-11-15T21:36:31.624Z,8.70
2022-11-15T21:38:59.636Z,9.37
2022-11-15T21:41:27.834Z,9.40
2022-11-15T21:44:00.591Z,9.23
2022-11-15T21:46:29.215Z,9.17
2022-11-15T21:48:59.085Z,9.33
2022-11-15T21:51:27.660Z,11.33
2022-11-15T21:53:56.758Z,9.67
2022-11-15T21:56:25.929Z,10.60
2022-11-15T21:58:54.548Z,10.33
2022-11-15T22:01:42.240Z,9.40
2022-11-15T22:04:10.941Z,10.77
2022-11-15T22:06:39.408Z,10.53
2022-11-15T22:09:08.105Z,10.97
2022-11-15T22:11:36.531Z,10.23
2022-11-15T22:14:04.663Z,9.57
2022-11-15T22:16:34.263Z,9.77
2022-11-15T22:19:02.481Z,9.63
2022-11-15T22:21:30.560Z,9.37
2022-11-15T22:23:58.832Z,9.40
2022-11-15T22:26:27.000Z,9.10
2022-11-15T22:28:55.211Z,8.87
2022-11-15T22:31:23.371Z,10.03
2022-11-15T22:33:52.925Z,10.57
2022-11-15T22:36:21.027Z,10.90
2022-11-15T22:38:49.094Z,9.57
2022-11-15T22:41:17.293Z,9.03
2022-11-15T22:43:48.232Z,8.40
2022-11-15T22:46:16.454Z,10.30
2022-11-15T22:48:44.696Z,9.53
2022-11-15T22:51:14.237Z,8.97
2022-11-15T22:53:42.410Z,8.87
2022-11-15T22:56:13.222Z,12.80
2022-11-15T22:58:44.438Z,9.67
2022-11-15T23:01:20.144Z,9.00
2022-11-15T23:03:48.429Z,8.50
2022-11-15T23:06:17.994Z,9.10
2022-11-15T23:08:46.047Z,9.20
2022-11-15T23:11:31.613Z,8.60
2022-11-15T23:13:59.812Z,8.17
2022-11-15T23:16:34.309Z,8.80
2022-11-15T23:19:05.275Z,8.70
2022-11-15T23:21:53.485Z,9.00
2022-11-15T23:24:22.299Z,8.53
2022-11-15T23:26:52.516Z,8.67
2022-11-15T23:29:23.589Z,8.20
2022-11-15T23:32:09.198Z,8.20
2022-11-15T23:34:40.174Z,8.50
2022-11-15T23:37:11.937Z,7.80
2022-11-15T23:39:40.190Z,7.53
2022-11-15T23:42:09.563Z,9.13
2022-11-15T23:44:38.111Z,8.40
2022-11-15T23:47:06.336Z,7.87
2022-11-15T23:49:34.570Z,8.00
2022-11-15T23:52:02.717Z,8.30
2022-11-15T23:54:32.209Z,8.10
2022-11-15T23:57:00.340Z,8.20
2022-11-15T23:59:28.565Z,8.07
